Time;durP1;ratioP1;P1;durP2;ratioP2;P2;SDS_P1;SDS_P2;PMS_P1;PMS_P2;Temp;Humidity;BMP_temperature;BMP_pressure;BME280_temperature;BME280_humidity;BME280_pressure;Samples;Min_cycle;Max_cycle;Signal;HPM_P1;HPM_P2
2021/08/12 00:00:25;;;;;;;1218.90;999.90;;;;;;;16.62;83.06;101979.38;4976442;28;20197;-76
2021/08/12 00:02:50;;;;;;;1317.27;999.90;;;;;;;15.53;83.35;101811.00;4980333;28;20221;-76
2021/08/12 00:05:15;;;;;;;1292.37;999.90;;;;;;;16.53;82.33;101988.75;4980863;28;20185;-76
2021/08/12 00:07:41;;;;;;;1269.80;999.90;;;;;;;16.22;82.26;101898.19;4978057;28;20600;-76
2021/08/12 00:10:07;;;;;;;1342.40;999.90;;;;;;;16.59;82.72;101958.13;4982499;28;20256;-77
2021/08/12 00:12:32;;;;;;;1315.70;999.90;;;;;;;16.09;82.23;101876.56;4982636;28;20322;-76
2021/08/12 00:14:57;;;;;;;1338.50;999.90;;;;;;;15.38;82.50;101788.75;4979673;28;20477;-76
2021/08/12 00:17:23;;;;;;;1391.77;999.90;;;;;;;15.53;82.35;101808.28;4980089;28;20197;-76
2021/08/12 00:19:48;;;;;;;1296.70;999.90;;;;;;;16.71;83.15;101972.69;4981486;28;20253;-75
2021/08/12 00:22:14;;;;;;;1301.77;999.90;;;;;;;16.32;83.87;101920.25;4980703;28;20220;-76
2021/08/12 00:24:39;;;;;;;1203.97;999.90;;;;;;;14.37;83.42;101672.63;4978187;28;20198;-75
2021/08/12 00:27:05;;;;;;;1288.63;999.90;;;;;;;15.42;83.59;101827.88;4978366;28;20747;-76
2021/08/12 00:29:30;;;;;;;1241.30;999.90;;;;;;;15.99;83.16;101912.97;4979651;28;20200;-76
2021/08/12 00:31:56;;;;;;;1187.17;997.30;;;;;;;15.97;83.28;101879.91;4982575;28;20253;-76
2021/08/12 00:34:21;;;;;;;1230.93;999.90;;;;;;;16.66;82.79;101994.13;4978132;28;20269;-77
2021/08/12 00:36:47;;;;;;;1230.57;999.90;;;;;;;16.53;82.98;101992.28;4980149;28;20272;-76
2021/08/12 00:39:13;;;;;;;1201.23;999.90;;;;;;;16.31;83.81;101947.53;4979981;28;20218;-76
2021/08/12 00:41:39;;;;;;;1172.63;999.90;;;;;;;15.97;84.05;101920.50;4978975;28;20281;-76
2021/08/12 00:44:05;;;;;;;1143.40;999.90;;;;;;;16.19;83.85;101933.81;4979859;28;20692;-76
2021/08/12 00:46:31;;;;;;;1197.93;999.90;;;;;;;16.30;83.97;101964.84;4977459;28;20453;-76
2021/08/12 00:48:56;;;;;;;1165.60;990.60;;;;;;;15.90;83.42;101873.66;4979335;28;20936;-76
2021/08/12 00:51:21;;;;;;;1128.73;992.00;;;;;;;16.52;83.74;102006.03;4982206;28;20258;-77
2021/08/12 00:53:48;;;;;;;1155.10;995.10;;;;;;;16.11;83.28;101934.00;4979208;28;20214;-76
2021/08/12 00:56:13;;;;;;;1142.80;999.90;;;;;;;15.25;83.79;101813.09;4979456;28;20728;-76
2021/08/12 00:58:39;;;;;;;1190.00;999.90;;;;;;;15.74;83.99;101869.50;4978447;28;20441;-76
2021/08/12 01:01:04;;;;;;;1129.77;979.33;;;;;;;15.91;83.61;101871.78;4979535;28;20194;-76
2021/08/12 01:03:30;;;;;;;1135.23;998.20;;;;;;;16.41;83.56;101983.97;4981234;28;20208;-76
2021/08/12 01:05:56;;;;;;;1112.93;990.07;;;;;;;16.13;84.16;101930.06;4978617;28;20205;-77
2021/08/12 01:08:45;;;;;;;1103.57;980.40;;;;;;;16.31;84.20;101937.53;4980338;28;20445;-77
2021/08/12 01:11:31;;;;;;;1100.97;972.77;;;;;;;16.41;83.75;101964.19;4979119;28;20531;-76
2021/08/12 01:14:15;;;;;;;1094.23;971.37;;;;;;;16.03;85.38;101943.19;4977893;28;20437;-76
2021/08/12 01:16:48;;;;;;;1060.43;945.53;;;;;;;15.93;87.04;101967.94;4977023;28;20463;-77
2021/08/12 01:19:46;;;;;;;1050.17;939.50;;;;;;;15.99;87.32;101975.22;4979550;28;20457;-76
2021/08/12 01:22:16;;;;;;;979.20;879.23;;;;;;;15.74;86.49;101906.56;4980621;28;20523;-76
2021/08/12 01:24:45;;;;;;;947.43;850.07;;;;;;;15.75;86.70;101911.72;4979285;28;21254;-76
2021/08/12 01:27:14;;;;;;;954.70;855.93;;;;;;;15.23;87.30;101844.88;4979757;28;20448;-77
2021/08/12 01:30:05;;;;;;;908.33;812.83;;;;;;;16.08;86.22;101965.03;4977923;28;20438;-77
2021/08/12 01:32:47;;;;;;;952.20;853.40;;;;;;;15.95;86.55;101951.50;4980431;28;20465;-77
2021/08/12 01:35:15;;;;;;;932.47;834.13;;;;;;;16.02;86.50;101966.69;4976928;28;20437;-76
2021/08/12 01:37:47;;;;;;;962.37;858.90;;;;;;;15.79;86.53;101926.53;4977703;28;20810;-77
2021/08/12 01:40:15;;;;;;;925.97;829.37;;;;;;;15.69;86.33;101917.97;4980273;28;20448;-77
2021/08/12 01:42:43;;;;;;;931.13;833.60;;;;;;;15.96;86.70;101958.56;4981208;28;21416;-76
2021/08/12 01:45:08;;;;;;;958.87;857.90;;;;;;;16.17;85.22;101952.13;4978209;28;20469;-77
2021/08/12 01:47:35;;;;;;;929.00;830.90;;;;;;;16.15;85.24;101952.34;4979263;28;20938;-76
2021/08/12 01:50:05;;;;;;;924.13;825.20;;;;;;;15.53;86.03;101899.41;4977222;28;20232;-76
2021/08/12 01:52:34;;;;;;;942.80;842.20;;;;;;;15.75;86.21;101943.38;4980201;28;20482;-76
2021/08/12 01:55:00;;;;;;;939.83;840.30;;;;;;;15.53;85.67;101927.25;4977048;28;20523;-77
2021/08/12 01:57:26;;;;;;;970.87;867.77;;;;;;;15.90;86.19;101972.94;4978670;28;20442;-77
2021/08/12 01:59:54;;;;;;;958.30;856.77;;;;;;;15.49;86.27;101920.63;4977990;28;20441;-77
2021/08/12 02:02:20;;;;;;;921.53;825.07;;;;;;;14.81;86.06;101822.53;4979281;28;20954;-77
2021/08/12 02:04:46;;;;;;;943.00;844.17;;;;;;;15.14;86.36;101868.56;4977517;28;20469;-77
2021/08/12 02:07:12;;;;;;;993.03;891.20;;;;;;;15.76;86.83;101956.66;4979470;28;20791;-76
2021/08/12 02:09:39;;;;;;;967.00;866.60;;;;;;;15.85;86.96;101967.31;4977781;28;20442;-77
2021/08/12 02:12:05;;;;;;;946.17;847.43;;;;;;;15.75;87.13;101989.34;4978956;28;20472;-77
2021/08/12 02:14:34;;;;;;;971.23;871.27;;;;;;;13.75;86.57;101669.91;4973549;28;20434;-76
2021/08/12 02:16:59;;;;;;;1056.97;943.63;;;;;;;15.77;86.68;101957.53;4978151;28;20433;-77
2021/08/12 02:19:25;;;;;;;1118.90;999.03;;;;;;;15.97;85.77;101968.38;4974020;28;20441;-77
2021/08/12 02:22:01;;;;;;;1135.50;999.90;;;;;;;15.29;86.56;101887.31;4980893;28;20206;-77
2021/08/12 02:24:53;;;;;;;1139.43;999.90;;;;;;;15.51;87.15;101937.47;4978021;28;20204;-77
2021/08/12 02:27:21;;;;;;;1181.17;999.90;;;;;;;15.54;87.43;101965.97;4974970;28;20433;-76
2021/08/12 02:29:49;;;;;;;1168.50;999.90;;;;;;;15.77;86.80;101971.88;4979394;28;20445;-77
2021/08/12 02:32:16;;;;;;;1124.17;998.37;;;;;;;15.39;86.83;101931.00;4976710;28;20561;-77
2021/08/12 02:34:42;;;;;;;1191.13;999.90;;;;;;;15.81;86.29;101956.88;4979280;28;20433;-77
2021/08/12 02:37:12;;;;;;;1128.13;999.37;;;;;;;14.99;86.18;101832.78;4979349;28;20438;-77
2021/08/12 02:39:40;;;;;;;1148.40;982.87;;;;;;;15.79;86.68;101971.66;4978527;28;20985;-77
2021/08/12 02:42:07;;;;;;;1073.73;945.80;;;;;;;15.71;86.78;101961.06;4978744;28;20491;-76
2021/08/12 02:44:34;;;;;;;1097.57;977.67;;;;;;;15.33;86.60;101884.00;4978002;28;20523;-77
2021/08/12 02:47:03;;;;;;;1063.07;946.37;;;;;;;15.52;85.47;101895.03;4978677;28;20437;-77
2021/08/12 02:49:31;;;;;;;1046.30;916.90;;;;;;;15.76;84.81;101907.16;4978944;28;20447;-77
2021/08/12 02:51:59;;;;;;;1002.93;891.43;;;;;;;15.86;85.05;101920.28;4980723;28;20461;-77
2021/08/12 02:54:27;;;;;;;1005.23;893.40;;;;;;;16.00;84.66;101936.31;4979167;28;20817;-77
2021/08/12 02:56:53;;;;;;;1024.77;912.90;;;;;;;15.79;84.24;101891.38;4977975;28;21098;-77
2021/08/12 02:59:19;;;;;;;993.23;887.60;;;;;;;15.70;83.63;101873.66;4992692;28;20449;-77
2021/08/12 03:01:45;;;;;;;963.50;857.90;;;;;;;15.87;83.44;101916.53;4978913;28;20461;-76
2021/08/12 03:04:11;;;;;;;962.93;858.77;;;;;;;16.01;83.20;101923.63;4979994;28;20508;-77
2021/08/12 03:06:38;;;;;;;922.27;827.10;;;;;;;16.07;83.52;101952.53;4976960;28;20501;-77
2021/08/12 03:09:04;;;;;;;947.40;846.73;;;;;;;15.28;82.75;101821.59;4977759;28;20189;-76
2021/08/12 03:11:30;;;;;;;885.07;789.10;;;;;;;15.92;83.86;101951.91;4979419;28;20721;-77
2021/08/12 03:13:56;;;;;;;924.60;827.67;;;;;;;15.99;83.63;101950.03;4979483;28;20178;-77
2021/08/12 03:16:22;;;;;;;908.57;812.13;;;;;;;15.05;83.07;101800.38;4980246;28;20858;-77
2021/08/12 03:18:48;;;;;;;906.53;809.47;;;;;;;14.53;82.72;101728.97;4980926;28;20190;-77
2021/08/12 03:21:15;;;;;;;952.17;852.17;;;;;;;15.91;82.58;101961.91;4980822;28;20193;-77
2021/08/12 03:23:42;;;;;;;920.17;820.20;;;;;;;15.87;83.26;101966.06;4982928;28;20212;-77
2021/08/12 03:26:08;;;;;;;908.53;807.67;;;;;;;15.73;83.55;101951.69;4981345;28;20476;-77
2021/08/12 03:28:33;;;;;;;929.37;831.03;;;;;;;15.38;83.78;101881.50;4983810;28;20453;-78
2021/08/12 03:30:59;;;;;;;887.10;777.00;;;;;;;15.22;83.47;101872.94;4980821;28;20218;-77
2021/08/12 03:33:26;;;;;;;895.40;798.27;;;;;;;15.20;82.74;101861.50;4979284;28;20206;-77
2021/08/12 03:35:51;;;;;;;947.20;844.50;;;;;;;15.77;83.21;101954.81;4981039;28;20190;-76
2021/08/12 03:38:17;;;;;;;936.50;834.30;;;;;;;15.44;83.83;101947.44;4983014;28;20499;-77
2021/08/12 03:40:42;;;;;;;935.30;834.23;;;;;;;15.29;82.87;101896.25;4982716;28;20197;-77
2021/08/12 03:43:10;;;;;;;916.13;791.33;;;;;;;15.69;83.17;101963.13;4979683;28;20207;-77
2021/08/12 03:45:35;;;;;;;916.37;815.87;;;;;;;14.98;83.50;101877.84;4979218;28;20185;-76
2021/08/12 03:48:00;;;;;;;921.00;821.33;;;;;;;15.28;84.27;101901.88;4982813;28;20440;-76
2021/08/12 03:50:26;;;;;;;930.27;831.40;;;;;;;15.67;84.29;101968.69;4979977;28;20663;-77
2021/08/12 03:52:51;;;;;;;902.33;780.83;;;;;;;14.64;83.11;101787.78;4984874;28;20205;-76
2021/08/12 03:55:17;;;;;;;924.63;823.70;;;;;;;15.52;84.71;101958.06;4983020;28;20190;-77
2021/08/12 03:57:43;;;;;;;881.17;784.13;;;;;;;14.15;83.94;101744.78;4981451;28;20192;-77
2021/08/12 04:00:11;;;;;;;946.07;844.20;;;;;;;14.74;83.62;101819.81;4979065;28;20190;-77
2021/08/12 04:02:36;;;;;;;942.93;830.80;;;;;;;15.19;82.49;101854.41;4975332;28;20465;-76
2021/08/12 04:05:02;;;;;;;908.30;808.90;;;;;;;15.02;83.15;101845.88;4981282;28;20527;-77
2021/08/12 04:07:27;;;;;;;913.23;811.70;;;;;;;14.91;83.95;101831.09;4981166;28;20252;-76
2021/08/12 04:09:52;;;;;;;985.80;866.97;;;;;;;15.30;83.81;101906.03;4977823;28;20701;-77
2021/08/12 04:12:18;;;;;;;922.03;805.03;;;;;;;15.61;84.32;101972.22;4980002;28;20748;-76
2021/08/12 04:14:45;;;;;;;963.57;856.17;;;;;;;14.64;85.88;101833.69;4980846;28;20184;-76
2021/08/12 04:17:11;;;;;;;909.67;811.77;;;;;;;15.67;84.30;101957.06;4982131;28;20269;-76
2021/08/12 04:19:36;;;;;;;920.00;819.80;;;;;;;15.12;83.98;101857.13;4982324;28;21152;-77
2021/08/12 04:22:02;;;;;;;893.43;795.53;;;;;;;14.69;85.10;101828.53;4979680;28;20202;-77
2021/08/12 04:24:27;;;;;;;946.30;843.13;;;;;;;15.62;84.73;101940.59;4979814;28;20221;-76
2021/08/12 04:26:53;;;;;;;913.57;813.80;;;;;;;15.36;84.25;101893.53;4980384;28;20245;-77
2021/08/12 04:29:18;;;;;;;924.47;814.23;;;;;;;15.29;83.87;101860.28;4980026;28;20221;-77
2021/08/12 04:31:43;;;;;;;930.37;830.73;;;;;;;15.24;83.77;101857.34;4980945;28;20214;-77
2021/08/12 04:34:10;;;;;;;915.23;817.47;;;;;;;15.54;83.83;101912.72;4978934;28;20199;-77
2021/08/12 04:36:36;;;;;;;906.93;809.47;;;;;;;15.24;84.80;101878.97;4979593;28;20242;-77
2021/08/12 04:39:01;;;;;;;904.83;809.47;;;;;;;15.69;85.10;101941.50;4981577;28;20449;-76
2021/08/12 04:41:27;;;;;;;903.50;807.30;;;;;;;15.25;85.76;101905.81;4977886;28;20210;-76
2021/08/12 04:43:52;;;;;;;943.40;842.73;;;;;;;15.61;86.27;101945.19;4979513;28;20205;-77
2021/08/12 04:46:17;;;;;;;892.17;796.23;;;;;;;15.03;85.24;101818.63;4979611;28;20622;-76
2021/08/12 04:48:43;;;;;;;950.70;853.13;;;;;;;15.23;85.39;101858.38;4978324;28;20186;-77
2021/08/12 04:51:09;;;;;;;972.87;870.90;;;;;;;15.47;86.05;101911.88;4980554;28;20201;-77
2021/08/12 04:53:35;;;;;;;969.20;867.63;;;;;;;14.98;86.45;101821.13;4981550;28;20183;-76
2021/08/12 04:56:00;;;;;;;944.00;847.13;;;;;;;15.29;86.65;101898.13;4979489;28;20543;-76
2021/08/12 04:58:25;;;;;;;968.23;867.80;;;;;;;14.32;86.62;101742.56;4978555;28;20659;-77
2021/08/12 05:00:51;;;;;;;981.93;877.70;;;;;;;15.43;86.71;101893.56;4977146;28;20263;-76
2021/08/12 05:03:17;;;;;;;926.03;832.20;;;;;;;15.51;87.14;101909.59;4979736;28;20201;-77
2021/08/12 05:05:42;;;;;;;946.73;850.53;;;;;;;14.85;87.61;101819.22;4981335;28;20926;-77
2021/08/12 05:08:07;;;;;;;938.87;844.53;;;;;;;15.19;87.11;101843.59;4978424;28;20311;-77
2021/08/12 05:10:33;;;;;;;945.57;850.03;;;;;;;15.47;87.07;101902.94;4981181;28;20643;-76
2021/08/12 05:12:58;;;;;;;1000.90;900.03;;;;;;;14.91;87.99;101822.97;4979857;28;20214;-77
2021/08/12 05:15:23;;;;;;;975.03;876.10;;;;;;;15.19;87.43;101855.28;4978909;28;20333;-77
2021/08/12 05:17:49;;;;;;;954.10;857.13;;;;;;;15.21;86.84;101846.94;4978544;28;20678;-77
2021/08/12 05:20:14;;;;;;;973.63;872.10;;;;;;;15.21;86.96;101838.84;4976621;28;20190;-77
2021/08/12 05:22:40;;;;;;;1066.80;955.20;;;;;;;15.35;87.23;101859.44;4978374;28;20209;-78
2021/08/12 05:25:06;;;;;;;1068.67;954.90;;;;;;;15.77;87.83;101950.25;4979726;28;22176;-75
2021/08/12 05:27:32;;;;;;;1034.97;925.60;;;;;;;15.13;87.54;101829.91;4977805;28;21293;-77
2021/08/12 05:29:57;;;;;;;1055.30;943.47;;;;;;;15.89;87.58;101949.63;4974453;28;20453;-76
2021/08/12 05:32:22;;;;;;;1085.47;968.53;;;;;;;15.19;87.33;101828.25;4976761;28;20213;-77
2021/08/12 05:34:48;;;;;;;1052.27;941.87;;;;;;;15.47;87.32;101862.38;4978483;28;20190;-77
2021/08/12 05:37:13;;;;;;;1076.43;960.60;;;;;;;15.56;87.56;101855.72;4982226;28;20646;-78
2021/08/12 05:39:39;;;;;;;1069.77;957.23;;;;;;;15.44;87.49;101842.00;4974468;28;20547;-77
2021/08/12 05:42:04;;;;;;;1076.80;964.47;;;;;;;16.08;88.05;101926.31;4978092;28;20213;-75
2021/08/12 05:44:30;;;;;;;1087.60;974.60;;;;;;;15.77;87.57;101874.50;4979828;28;20247;-75
2021/08/12 05:46:55;;;;;;;1098.97;983.40;;;;;;;15.56;87.67;101855.72;4981730;28;20193;-76
2021/08/12 05:49:23;;;;;;;1056.47;947.90;;;;;;;16.09;88.11;101960.47;4979872;28;20551;-76
2021/08/12 05:51:49;;;;;;;1096.53;979.27;;;;;;;16.15;88.33;101943.41;4978183;28;20301;-76
2021/08/12 05:54:15;;;;;;;1061.57;952.23;;;;;;;15.37;88.35;101809.56;4980976;28;20464;-77
2021/08/12 05:56:40;;;;;;;1053.63;941.33;;;;;;;16.36;88.17;101961.28;4980422;28;20925;-77
2021/08/12 05:59:05;;;;;;;1066.23;953.10;;;;;;;15.40;87.43;101786.69;4979859;28;20217;-78
2021/08/12 06:01:31;;;;;;;1038.60;932.10;;;;;;;16.03;88.35;101892.59;4978666;28;20205;-78
2021/08/12 06:03:56;;;;;;;1029.50;919.23;;;;;;;16.14;88.35;101925.47;4980812;28;20217;-77
2021/08/12 06:06:22;;;;;;;1086.97;970.37;;;;;;;15.57;87.79;101797.91;4982095;28;20248;-76
2021/08/12 06:08:47;;;;;;;1111.20;991.50;;;;;;;16.43;87.99;101952.13;4978482;28;20733;-77
2021/08/12 06:11:12;;;;;;;1068.53;955.30;;;;;;;15.57;88.22;101833.91;4979710;28;20206;-76
2021/08/12 06:13:38;;;;;;;1043.27;933.77;;;;;;;16.04;88.27;101891.53;4977460;28;20184;-77
2021/08/12 06:16:03;;;;;;;1065.93;953.90;;;;;;;15.76;88.70;101840.34;4973478;28;20190;-77
2021/08/12 06:18:29;;;;;;;1045.53;933.93;;;;;;;15.85;88.42;101857.22;4980711;28;20719;-77
2021/08/12 06:20:55;;;;;;;1092.77;978.03;;;;;;;16.00;88.27;101868.66;4977862;28;20194;-78
2021/08/12 06:23:21;;;;;;;1072.87;955.63;;;;;;;15.73;88.30;101850.75;4977972;28;20210;-76
2021/08/12 06:25:46;;;;;;;1067.20;954.00;;;;;;;15.75;88.06;101827.06;4979197;28;20956;-78
2021/08/12 06:28:12;;;;;;;1047.37;929.33;;;;;;;16.06;86.75;101836.41;4976642;28;20186;-78
2021/08/12 06:30:38;;;;;;;1076.23;960.00;;;;;;;16.83;87.39;101962.88;4981036;28;20594;-78
2021/08/12 06:33:04;;;;;;;1123.27;966.50;;;;;;;16.61;85.59;101905.41;4979240;28;20449;-78
2021/08/12 06:35:35;;;;;;;1138.27;999.90;;;;;;;16.64;85.55;101912.28;4978654;28;20432;-77
2021/08/12 06:38:02;;;;;;;1083.67;961.40;;;;;;;16.80;84.84;101914.53;4979992;28;20486;-77
2021/08/12 06:40:28;;;;;;;1048.60;935.23;;;;;;;15.89;83.60;101773.78;4981291;28;20503;-78
2021/08/12 06:42:54;;;;;;;1107.37;944.67;;;;;;;16.46;82.28;101828.97;4977894;28;20493;-77
2021/08/12 06:45:20;;;;;;;1030.57;919.07;;;;;;;16.65;81.17;101860.56;4977879;28;20466;-77
2021/08/12 06:47:49;;;;;;;1019.47;916.37;;;;;;;17.16;79.64;101903.13;4980731;28;20193;-76
2021/08/12 06:50:16;;;;;;;1019.17;914.80;;;;;;;17.62;79.59;101969.00;4985589;28;20434;-76
2021/08/12 06:52:42;;;;;;;1050.87;942.40;;;;;;;17.70;79.05;101968.72;4981006;28;20468;-77
2021/08/12 06:55:08;;;;;;;1058.67;946.77;;;;;;;17.68;78.04;101994.44;4982993;28;20496;-78
2021/08/12 06:57:33;;;;;;;1078.53;964.67;;;;;;;17.66;79.01;101945.78;4983025;28;20243;-79
2021/08/12 06:59:59;;;;;;;1049.97;943.00;;;;;;;17.18;78.66;101848.66;4983894;28;20449;-78
2021/08/12 07:02:24;;;;;;;1086.27;974.93;;;;;;;17.88;77.29;101962.59;4984073;28;20632;-78
2021/08/12 07:04:49;;;;;;;1090.13;975.47;;;;;;;17.32;77.99;101862.97;4983736;28;20693;-77
2021/08/12 07:07:15;;;;;;;1079.30;964.33;;;;;;;17.28;77.29;101830.06;4983305;28;20191;-77
2021/08/12 07:09:40;;;;;;;1074.80;961.77;;;;;;;18.12;75.98;101957.41;4983882;28;20198;-78
2021/08/12 07:12:06;;;;;;;1092.60;976.17;;;;;;;18.00;76.45;101911.97;4982990;28;20217;-78
2021/08/12 07:14:31;;;;;;;1126.80;999.40;;;;;;;18.15;76.24;101933.34;4983435;28;20240;-78
2021/08/12 07:16:57;;;;;;;1125.33;999.90;;;;;;;17.71;75.59;101850.19;4982390;28;20494;-77
2021/08/12 07:19:23;;;;;;;1112.80;992.63;;;;;;;17.68;74.03;101847.91;4981887;28;20190;-77
2021/08/12 07:21:51;;;;;;;1028.23;923.47;;;;;;;18.11;73.36;101904.97;4983242;28;20463;-77
2021/08/12 07:24:17;;;;;;;1042.90;937.53;;;;;;;18.19;73.03;101937.25;4982580;28;20456;-76
2021/08/12 07:26:43;;;;;;;1000.53;899.03;;;;;;;17.81;73.66;101870.34;4982089;28;20437;-77
2021/08/12 07:29:08;;;;;;;1030.77;923.50;;;;;;;18.41;73.93;101945.84;4981157;28;20194;-78
2021/08/12 07:31:34;;;;;;;1112.60;991.00;;;;;;;18.66;75.39;101958.53;4981233;28;20463;-77
2021/08/12 07:33:59;;;;;;;1106.23;985.80;;;;;;;18.79;75.10;101963.03;4980840;28;20189;-77
2021/08/12 07:36:27;;;;;;;1056.07;945.10;;;;;;;18.11;73.32;101858.81;4981002;28;20186;-77
2021/08/12 07:38:53;;;;;;;1039.07;929.63;;;;;;;18.19;72.48;101858.50;4978513;28;20190;-76
2021/08/12 07:41:18;;;;;;;1037.40;915.90;;;;;;;18.96;72.54;101981.22;4982026;28;21061;-77
2021/08/12 07:43:44;;;;;;;1017.93;910.67;;;;;;;19.09;72.95;101974.81;4982194;28;20876;-78
2021/08/12 07:46:12;;;;;;;1039.80;930.63;;;;;;;18.25;72.10;101844.06;4982546;28;20812;-78
2021/08/12 07:48:37;;;;;;;998.13;895.57;;;;;;;19.03;71.29;101953.94;4981103;28;20573;-75
2021/08/12 07:51:03;;;;;;;1018.30;909.90;;;;;;;19.09;71.27;101977.53;4983182;28;20448;-76
2021/08/12 07:53:29;;;;;;;1000.37;893.53;;;;;;;18.46;71.16;101874.56;4981993;28;20190;-77
2021/08/12 07:55:56;;;;;;;1048.33;939.23;;;;;;;19.20;71.77;101967.75;4984569;28;20430;-77
2021/08/12 07:58:23;;;;;;;1076.70;965.53;;;;;;;18.53;72.12;101861.69;4981530;28;20197;-77
2021/08/12 08:00:48;;;;;;;1109.67;990.30;;;;;;;19.05;72.25;101934.72;4980869;28;20520;-76
2021/08/12 08:03:13;;;;;;;1044.30;935.23;;;;;;;18.80;71.93;101864.13;4983331;28;20542;-77
2021/08/12 08:05:39;;;;;;;1062.43;949.63;;;;;;;19.02;71.22;101892.47;4982113;28;20217;-77
2021/08/12 08:08:04;;;;;;;1091.17;974.23;;;;;;;19.45;71.59;101975.81;4987743;28;20186;-77
2021/08/12 08:10:30;;;;;;;1047.17;936.67;;;;;;;19.42;70.67;101924.56;4985853;28;20190;-78
2021/08/12 08:12:55;;;;;;;1028.87;916.23;;;;;;;19.26;70.20;101917.88;4982153;28;20268;-77
2021/08/12 08:15:22;;;;;;;1126.93;998.87;;;;;;;19.69;71.23;101978.66;4986782;28;20197;-77
2021/08/12 08:17:47;;;;;;;1130.73;999.80;;;;;;;18.44;70.20;101755.25;4980082;28;20194;-77
2021/08/12 08:20:14;;;;;;;1139.13;999.90;;;;;;;19.75;70.15;101972.28;4986658;28;20436;-76
2021/08/12 08:22:40;;;;;;;1121.20;997.97;;;;;;;19.56;69.02;101957.88;4991122;28;20217;-77
2021/08/12 08:25:07;;;;;;;1058.33;945.13;;;;;;;19.55;69.86;101937.97;4986964;28;20846;-76
2021/08/12 08:27:32;;;;;;;1074.07;957.80;;;;;;;19.27;68.91;101911.41;4986836;28;20197;-75
2021/08/12 08:29:58;;;;;;;1089.07;975.13;;;;;;;19.38;69.02;101875.25;4981420;28;20450;-76
2021/08/12 08:32:23;;;;;;;1083.23;966.90;;;;;;;20.05;68.94;101978.50;4981365;28;20213;-77
2021/08/12 08:34:49;;;;;;;1130.83;998.73;;;;;;;18.55;70.05;101760.97;4979636;28;20185;-77
2021/08/12 08:37:18;;;;;;;1149.57;999.90;;;;;;;19.54;69.67;101933.59;4982107;28;20194;-78
2021/08/12 08:39:43;;;;;;;1198.60;999.90;;;;;;;19.25;70.42;101888.22;4980529;28;20182;-76
2021/08/12 08:42:11;;;;;;;1220.43;999.90;;;;;;;19.39;70.62;101866.03;4981282;28;20465;-74
2021/08/12 08:44:38;;;;;;;1333.70;999.90;;;;;;;20.03;69.71;101958.84;4979451;28;20217;-76
2021/08/12 08:47:07;;;;;;;1271.83;999.90;;;;;;;20.15;69.52;101971.66;4980289;28;20444;-77
2021/08/12 08:49:39;;;;;;;1005.57;803.33;;;;;;;20.31;68.42;101960.88;4980655;28;20501;-78
2021/08/12 08:52:08;;;;;;;1303.23;999.90;;;;;;;20.12;68.14;101945.69;4976929;28;20565;-77
2021/08/12 08:54:34;;;;;;;1260.70;999.90;;;;;;;20.39;67.36;101973.31;4982134;28;20437;-78
2021/08/12 08:57:00;;;;;;;1300.10;999.90;;;;;;;19.82;67.48;101858.66;4980530;28;20480;-77
2021/08/12 08:59:26;;;;;;;1341.03;999.90;;;;;;;20.12;66.81;101896.66;4970884;28;20914;-76
2021/08/12 09:01:52;;;;;;;1205.57;999.90;;;;;;;20.01;65.50;101876.53;4976111;28;20218;-77
2021/08/12 09:04:17;;;;;;;1312.90;999.90;;;;;;;19.74;64.57;101820.91;4978743;28;20461;-77
2021/08/12 09:06:44;;;;;;;1322.33;999.90;;;;;;;20.19;65.08;101886.50;4977651;28;20777;-76
2021/08/12 09:09:10;;;;;;;1235.37;999.90;;;;;;;20.14;66.02;101863.78;4980943;28;20520;-76
2021/08/12 09:11:36;;;;;;;1270.70;999.90;;;;;;;20.39;63.98;101913.34;4981250;28;20244;-76
2021/08/12 09:14:37;;;;;;;1278.73;999.90;;;;;;;20.44;65.22;101901.75;4980256;28;20497;-76
2021/08/12 09:17:18;;;;;;;1185.60;999.90;;;;;;;20.91;64.35;101951.59;4979799;28;20204;-77
2021/08/12 09:19:59;;;;;;;1215.60;999.90;;;;;;;20.84;63.97;101939.16;4979742;28;20605;-77
2021/08/12 09:22:27;;;;;;;1312.03;999.90;;;;;;;20.69;64.26;101898.78;4980249;28;20469;-78
2021/08/12 09:24:53;;;;;;;1199.23;999.90;;;;;;;20.75;62.28;101917.72;4979930;28;20961;-76
2021/08/12 09:27:19;;;;;;;1056.13;943.40;;;;;;;20.97;60.28;101936.16;4981793;28;20446;-74
2021/08/12 09:29:45;;;;;;;1029.07;917.83;;;;;;;20.76;61.55;101896.75;4979801;28;20449;-77
2021/08/12 09:32:10;;;;;;;1005.43;898.73;;;;;;;20.48;62.10;101871.06;4981902;28;20535;-74
2021/08/12 09:34:44;;;;;;;1057.10;946.10;;;;;;;20.75;61.80;101903.28;4981904;28;20209;-75
2021/08/12 09:37:10;;;;;;;1043.07;929.40;;;;;;;20.42;61.88;101844.75;4984186;28;20239;-74
2021/08/12 09:39:37;;;;;;;1039.50;924.90;;;;;;;21.19;62.45;101952.69;4981955;28;20437;-74
2021/08/12 09:42:04;;;;;;;1073.37;962.53;;;;;;;20.58;62.03;101866.94;4980081;28;20516;-75
2021/08/12 09:44:50;;;;;;;1056.83;944.63;;;;;;;21.15;62.54;101927.81;4980684;28;20886;-77
2021/08/12 09:47:26;;;;;;;1032.80;928.17;;;;;;;21.22;60.36;101955.75;4981100;28;20441;-77
2021/08/12 09:49:56;;;;;;;987.97;883.87;;;;;;;21.15;60.66;101955.09;4982898;28;20821;-76
2021/08/12 09:52:32;;;;;;;994.07;888.50;;;;;;;21.35;59.90;101949.19;4976616;28;20542;-77
2021/08/12 09:55:04;;;;;;;1014.03;907.33;;;;;;;21.39;59.68;101934.00;4981011;28;20847;-77
2021/08/12 09:57:44;;;;;;;1023.63;914.57;;;;;;;21.25;60.49;101915.44;4979601;28;20453;-75
2021/08/12 10:00:12;;;;;;;1006.70;899.43;;;;;;;21.44;58.51;101930.56;4980483;28;20972;-76
2021/08/12 10:02:38;;;;;;;1004.00;897.57;;;;;;;21.51;58.43;101954.97;4977134;28;20460;-73
2021/08/12 10:05:10;;;;;;;1024.33;914.40;;;;;;;21.42;58.57;101958.09;4977917;28;20461;-76
2021/08/12 10:07:41;;;;;;;996.13;891.40;;;;;;;21.31;58.04;101936.28;4980517;28;20429;-77
2021/08/12 10:10:20;;;;;;;995.27;894.20;;;;;;;21.58;58.96;101936.53;4978299;28;20440;-78
2021/08/12 10:12:56;;;;;;;962.37;860.17;;;;;;;21.65;58.78;101969.97;4978863;28;20464;-75
2021/08/12 10:15:26;;;;;;;976.67;875.43;;;;;;;21.59;57.86;101949.13;4980190;28;20945;-76
2021/08/12 10:17:55;;;;;;;927.70;828.50;;;;;;;21.78;58.97;101941.50;4987615;28;20433;-76
2021/08/12 10:20:30;;;;;;;956.60;858.00;;;;;;;21.69;57.64;101932.91;4980181;28;20457;-76
2021/08/12 10:22:57;;;;;;;991.63;890.87;;;;;;;21.96;58.05;101952.22;4982161;28;20459;-75
2021/08/12 10:25:24;;;;;;;953.27;854.90;;;;;;;21.46;58.27;101873.81;4985813;28;20476;-77
2021/08/12 10:27:56;;;;;;;958.63;856.87;;;;;;;21.59;57.95;101859.84;4986078;28;20492;-77
2021/08/12 10:30:25;;;;;;;940.20;843.93;;;;;;;21.61;58.19;101900.53;4984578;28;20437;-77
2021/08/12 10:33:05;;;;;;;975.37;872.20;;;;;;;21.95;57.95;101963.38;4992557;28;20487;-76
2021/08/12 10:35:34;;;;;;;935.77;837.13;;;;;;;22.02;57.46;101962.16;4984649;28;20626;-77
2021/08/12 10:38:00;;;;;;;973.50;872.93;;;;;;;21.94;58.22;101918.03;4984164;28;21202;-77
2021/08/12 10:40:28;;;;;;;1009.17;902.10;;;;;;;21.61;58.49;101887.75;4984860;28;20468;-77
2021/08/12 10:42:56;;;;;;;962.23;865.57;;;;;;;21.87;58.06;101919.03;4985445;28;20464;-77
2021/08/12 10:45:24;;;;;;;1047.83;937.77;;;;;;;22.29;58.70;101970.53;4984219;28;20466;-78
2021/08/12 10:47:54;;;;;;;997.17;890.43;;;;;;;22.15;59.46;101920.00;4984792;28;20934;-77
2021/08/12 10:50:30;;;;;;;1013.50;907.37;;;;;;;22.65;57.66;101962.84;4984059;28;20433;-77